YMHBYMML

Guest
Details From YMHB - Hobart
To YMML - Melbourne Intl
Flight Number -
Tags decoded
Created
Modified
Stats Distance 334 nm / 619 km
Max Altitude 0 ft / 0 m
Waypoints 4
Social Downloads 0
Likes 0
Share VATSIM

Download

Looking for another format? Having issues loading an existing format? Contact us
Advertisement - Login to hide

Notes

Requested: YMHB DPO CWS YMML

Route

YMHB DPO CWS YMML

ID Type Via Altitude Latitude Longitude Leg Dist Tot Dist Heading (true) Name
O YMHB APT - 0 ft / 0 m -42.83617˚ 147.51180˚ - 0 nm - Hobart
DPO NDB - 0 ft / 0 m -41.17392˚ 146.42855˚ 110 nm 110 nm 334° / 335° DEVONPORT NDB
CWS NDB - 0 ft / 0 m -38.51702˚ 145.22075˚ 169 nm 279 nm 340° / 341° COWES NDB
O YMML APT - 0 ft / 0 m -37.66530˚ 144.83667˚ 54 nm 334 nm 340° / 341° Melbourne Intl

Altitude Profile

Advertisement - Login to hide

Weather


0- 5 10 15 20 25 30 35+ Temperature / ° C

Clouds and Precipitation
Forecast for 2018-05-27 00:00 UTC. Updated 5 hours ago

Ground ~20,000 ft ~40,000 ft Winds

YMHB

Details ICAO YMHB (HBA)
Name Hobart
Region Australia
Timezone Australia/Hobart (UTC+10.0)
Stats Elevation 12 ft / 4 m (AMSL)
Location -42.836167° 147.511798°
Runways 1
Magnetic Variation 15.114° E

METAR

YMHB 270330Z 32009KT CAVOK 10/04 Q1022

Decode

TAF

TAF YMHB 262320Z 2700/2724 33010KT 9999 FEW025 FM270200 36010KT CAVOK FM272100 36012KT 9999 -SHRA SCT050

Decode

Departure Runways

ID Width Length Bearing (true) Bearing (mag) Surface Threshold Offset Overrun Length
12 148 ft / 45 m 7,379 ft / 2,249 m 135.11° 120.00° Asphalt 0 ft / 0 m 0 ft / 0 m
30 148 ft / 45 m 7,379 ft / 2,249 m 315.09° 299.98° Asphalt 0 ft / 0 m 0 ft / 0 m

YMML

Details ICAO YMML (MEL)
Name Melbourne Intl
Region Australia
Timezone Australia/Melbourne (UTC+10.0)
Stats Elevation 433 ft / 132 m (AMSL)
Location -37.665301° 144.836668°
Runways 2
Magnetic Variation 11.508° E

METAR

YMML 270330Z 36021KT 9999 FEW040 SCT230 BKN250 19/08 Q1022 FM0330 MOD TURB BLW 5000FT

Decode

TAF

TAF YMML 262321Z 2700/2806 01018G34KT CAVOK FM270800 01014KT CAVOK FM272200 01016G28KT CAVOK

Decode

Destination Runways

ID Width Length Bearing (true) Bearing (mag) Surface Threshold Offset Overrun Length
09 148 ft / 45 m 7,494 ft / 2,284 m 94.01° 82.50° Asphalt 0 ft / 0 m 0 ft / 0 m
16 148 ft / 45 m 12,008 ft / 3,660 m 171.02° 159.51° Asphalt 98 ft / 30 m 0 ft / 0 m
27 148 ft / 45 m 7,494 ft / 2,284 m 274.00° 262.49° Asphalt 0 ft / 0 m 0 ft / 0 m
34 148 ft / 45 m 12,008 ft / 3,660 m 351.01° 339.50° Asphalt 98 ft / 30 m 0 ft / 0 m

Approach Navaids

Runway Type Ident Frequency Range Bearing (true) Bearing (mag) Slope Elevation
16 Localiser IMS 109.70 MHz 18 nm / 33 km 171.57° 160.06° - 433 ft / 132 m (AMSL)
16 Glidescope IMS 109.70 MHz 10 nm / 19 km 171.02° 159.51° 3.00° 433 ft / 132 m (AMSL)
27 Localiser IMW 109.30 MHz 18 nm / 33 km 274.13° 262.62° - 433 ft / 132 m (AMSL)
27 Glidescope IMW 109.30 MHz 10 nm / 19 km 274.00° 262.50° 3.00° 433 ft / 132 m (AMSL)

Popular Alternatives